Portada
METAR-TAF:

METAR-TAF

Aeropuertos :

Baréin, Bahréin

Aeropuerto Internacional de Baréin

latitud: 26-16N, longitud: 050-39E, altitud: 2 m

Observación

El informe se hizo hace 33 minutos, a las 08:00 UTC
Viento 17 kt del norte-noroeste
Temperatura 37°C
Humedad 35%
Presión 1004 hPa
Visibilidad 10 km o más
sin nubes por debajo de 1500 m y sin presencia de cumulonimbus.

METAR: OBBI 280800Z 34017KT CAVOK 37/19 Q1004 NOSIG

Hora: 11:33 (08:33 UTC)

Pronóstico

El informe se hizo hace 3 horas y 33 minutos, a las 05:00 UTC
Pronóstico válido del 28 a las 06 UTC al 29 a las 12 UTC
Viento 17 kt del norte-noroeste con ráfagas de 27 kt
Visibilidad 10 km o más
sin nubes por debajo de 1500 m y sin presencia de cumulonimbus.
Probabilidad 30% :
Temporalmente
del 28 a las 06 UTC al 28 a las 13 UTC
Visibilidad: 5000 m
Ventisca alta de arena

TAF: OBBI 280500Z 2806/2912 34017G27KT CAVOK PROB30 TEMPO 2806/2813 5000 BLSA

Observaciones y pronósticos meteorológicos de más de 4000 aeropuertos (mensajes METAR y TAF).

Los puntos amarillos y rojos representan las estaciones disponibles.

Ponga el ratón en el punto deseado para ver el nombre de la estación.

Haga clic para ver las observaciones y los pronósticos meteorológicos.

Para cambiar el mapa : haga clic en los botones verdes con una cruz de color negro para hacer un zoom, en el botón verde con un guión para alejar o en las flechas verdes para mapas adyacentes.


METAR-TAF: